sensor_id;sensor_type;location;lat;lon;timestamp;P1;durP1;ratioP1;P2;durP2;ratioP2
49582;SDS011;36329;48.816;44.624;2022-09-16T00:02:55;3.9;;;2;;
49582;SDS011;36329;48.816;44.624;2022-09-16T00:05:57;4.7;;;2.3;;
49582;SDS011;36329;48.816;44.624;2022-09-16T00:08:59;2.5;;;1.9;;
49582;SDS011;36329;48.816;44.624;2022-09-16T00:12:01;3.6;;;2.5;;
49582;SDS011;36329;48.816;44.624;2022-09-16T00:15:03;4.7;;;2.7;;
49582;SDS011;36329;48.816;44.624;2022-09-16T00:18:05;5.3;;;3.2;;
49582;SDS011;36329;48.816;44.624;2022-09-16T00:21:07;4.2;;;2.9;;
49582;SDS011;36329;48.816;44.624;2022-09-16T00:24:10;4.3;;;3.1;;
49582;SDS011;36329;48.816;44.624;2022-09-16T00:27:11;4.1;;;3;;
49582;SDS011;36329;48.816;44.624;2022-09-16T00:30:13;4.2;;;2.8;;
49582;SDS011;36329;48.816;44.624;2022-09-16T00:33:15;4.6;;;2.8;;
49582;SDS011;36329;48.816;44.624;2022-09-16T00:36:17;4;;;2.5;;
49582;SDS011;36329;48.816;44.624;2022-09-16T00:39:20;3.8;;;2.4;;
49582;SDS011;36329;48.816;44.624;2022-09-16T00:42:22;2.8;;;2.4;;
49582;SDS011;36329;48.816;44.624;2022-09-16T00:45:24;3.6;;;2.2;;
49582;SDS011;36329;48.816;44.624;2022-09-16T00:48:27;3.3;;;2.4;;
49582;SDS011;36329;48.816;44.624;2022-09-16T00:51:30;3.6;;;2.6;;
49582;SDS011;36329;48.816;44.624;2022-09-16T00:54:32;3.7;;;2.4;;
49582;SDS011;36329;48.816;44.624;2022-09-16T00:57:37;3.7;;;2.4;;
49582;SDS011;36329;48.816;44.624;2022-09-16T01:00:39;2.8;;;2.3;;
49582;SDS011;36329;48.816;44.624;2022-09-16T01:03:43;3.5;;;2.5;;
49582;SDS011;36329;48.816;44.624;2022-09-16T01:06:49;4.6;;;2.6;;
49582;SDS011;36329;48.816;44.624;2022-09-16T01:09:51;3.5;;;2.5;;
49582;SDS011;36329;48.816;44.624;2022-09-16T01:12:55;3.2;;;2.4;;
49582;SDS011;36329;48.816;44.624;2022-09-16T01:16:04;3.6;;;2.5;;
49582;SDS011;36329;48.816;44.624;2022-09-16T01:19:15;3.1;;;2.3;;
49582;SDS011;36329;48.816;44.624;2022-09-16T01:22:37;3.6;;;2.3;;
49582;SDS011;36329;48.816;44.624;2022-09-16T01:25:51;3.3;;;2.2;;
49582;SDS011;36329;48.816;44.624;2022-09-16T01:29:14;2.9;;;2.2;;
49582;SDS011;36329;48.816;44.624;2022-09-16T01:32:28;2.9;;;2.1;;
49582;SDS011;36329;48.816;44.624;2022-09-16T01:35:40;4.6;;;2;;
49582;SDS011;36329;48.816;44.624;2022-09-16T01:38:54;3.6;;;2;;
49582;SDS011;36329;48.816;44.624;2022-09-16T01:42:09;3.7;;;2;;
49582;SDS011;36329;48.816;44.624;2022-09-16T01:45:19;2.4;;;1.9;;
49582;SDS011;36329;48.816;44.624;2022-09-16T01:48:28;2;;;1.8;;
49582;SDS011;36329;48.816;44.624;2022-09-16T01:51:36;3.4;;;1.8;;
49582;SDS011;36329;48.816;44.624;2022-09-16T01:54:46;2.5;;;1.6;;
49582;SDS011;36329;48.816;44.624;2022-09-16T01:57:55;2.6;;;1.5;;
49582;SDS011;36329;48.816;44.624;2022-09-16T02:01:02;2;;;1.5;;
49582;SDS011;36329;48.816;44.624;2022-09-16T02:04:08;2.5;;;1.5;;
49582;SDS011;36329;48.816;44.624;2022-09-16T02:07:15;2.6;;;1.4;;
49582;SDS011;36329;48.816;44.624;2022-09-16T02:10:21;2.8;;;1.5;;
49582;SDS011;36329;48.816;44.624;2022-09-16T02:13:28;2.9;;;1.6;;
49582;SDS011;36329;48.816;44.624;2022-09-16T02:16:35;2.3;;;1.3;;
49582;SDS011;36329;48.816;44.624;2022-09-16T02:19:42;1.7;;;1.2;;
49582;SDS011;36329;48.816;44.624;2022-09-16T02:22:47;2;;;1.4;;
49582;SDS011;36329;48.816;44.624;2022-09-16T02:25:53;2.2;;;1.4;;
49582;SDS011;36329;48.816;44.624;2022-09-16T02:28:55;2;;;1.5;;
49582;SDS011;36329;48.816;44.624;2022-09-16T02:31:59;3.1;;;1.6;;
49582;SDS011;36329;48.816;44.624;2022-09-16T02:35:06;2.7;;;1.7;;
49582;SDS011;36329;48.816;44.624;2022-09-16T02:38:14;2.6;;;1.5;;
49582;SDS011;36329;48.816;44.624;2022-09-16T02:41:20;2.8;;;1.8;;
49582;SDS011;36329;48.816;44.624;2022-09-16T02:44:23;2.8;;;1.7;;
49582;SDS011;36329;48.816;44.624;2022-09-16T02:47:26;4;;;1.9;;
49582;SDS011;36329;48.816;44.624;2022-09-16T02:50:35;3.2;;;1.9;;
49582;SDS011;36329;48.816;44.624;2022-09-16T02:53:44;3.9;;;2.1;;
49582;SDS011;36329;48.816;44.624;2022-09-16T02:56:50;3.5;;;2.5;;
49582;SDS011;36329;48.816;44.624;2022-09-16T02:59:55;3.8;;;2.4;;
49582;SDS011;36329;48.816;44.624;2022-09-16T03:02:57;4.4;;;2.8;;
49582;SDS011;36329;48.816;44.624;2022-09-16T03:06:02;3.6;;;2.9;;
49582;SDS011;36329;48.816;44.624;2022-09-16T03:09:12;4.7;;;3;;
49582;SDS011;36329;48.816;44.624;2022-09-16T03:12:22;4.2;;;2.3;;
49582;SDS011;36329;48.816;44.624;2022-09-16T03:15:35;4.5;;;2.1;;
49582;SDS011;36329;48.816;44.624;2022-09-16T03:18:47;3.5;;;2;;
49582;SDS011;36329;48.816;44.624;2022-09-16T03:21:58;3.1;;;1.9;;
49582;SDS011;36329;48.816;44.624;2022-09-16T03:25:07;2.8;;;1.9;;
49582;SDS011;36329;48.816;44.624;2022-09-16T03:28:15;2.9;;;1.7;;
49582;SDS011;36329;48.816;44.624;2022-09-16T03:31:23;2.4;;;1.5;;
49582;SDS011;36329;48.816;44.624;2022-09-16T03:34:30;2.5;;;1.6;;
49582;SDS011;36329;48.816;44.624;2022-09-16T03:37:37;2.8;;;1.6;;
49582;SDS011;36329;48.816;44.624;2022-09-16T03:40:40;3.5;;;1.6;;
49582;SDS011;36329;48.816;44.624;2022-09-16T03:43:51;4.4;;;1.7;;
49582;SDS011;36329;48.816;44.624;2022-09-16T03:46:53;2.8;;;1.7;;
49582;SDS011;36329;48.816;44.624;2022-09-16T03:49:54;2.4;;;1.5;;
49582;SDS011;36329;48.816;44.624;2022-09-16T03:52:56;2.8;;;1.6;;
49582;SDS011;36329;48.816;44.624;2022-09-16T03:55:57;4;;;1.7;;
49582;SDS011;36329;48.816;44.624;2022-09-16T03:58:58;2.8;;;1.6;;
49582;SDS011;36329;48.816;44.624;2022-09-16T04:02:00;2.6;;;1.5;;
49582;SDS011;36329;48.816;44.624;2022-09-16T04:05:02;3.3;;;1.7;;
49582;SDS011;36329;48.816;44.624;2022-09-16T04:08:04;2.3;;;1.7;;
49582;SDS011;36329;48.816;44.624;2022-09-16T04:11:06;3;;;1.6;;
49582;SDS011;36329;48.816;44.624;2022-09-16T04:14:08;3.2;;;1.5;;
49582;SDS011;36329;48.816;44.624;2022-09-16T04:17:10;3.6;;;1.7;;
49582;SDS011;36329;48.816;44.624;2022-09-16T04:20:11;2.4;;;1.5;;
49582;SDS011;36329;48.816;44.624;2022-09-16T04:23:13;2.2;;;1.4;;
49582;SDS011;36329;48.816;44.624;2022-09-16T04:26:15;3.2;;;1.6;;
49582;SDS011;36329;48.816;44.624;2022-09-16T04:29:17;3.3;;;1.6;;
49582;SDS011;36329;48.816;44.624;2022-09-16T04:32:19;2;;;1.6;;
49582;SDS011;36329;48.816;44.624;2022-09-16T04:35:20;2.9;;;1.6;;
49582;SDS011;36329;48.816;44.624;2022-09-16T04:38:22;2.4;;;1.4;;
49582;SDS011;36329;48.816;44.624;2022-09-16T04:41:24;2.6;;;1.4;;
49582;SDS011;36329;48.816;44.624;2022-09-16T04:44:26;4.1;;;1.6;;
49582;SDS011;36329;48.816;44.624;2022-09-16T04:47:29;2.4;;;1.4;;
49582;SDS011;36329;48.816;44.624;2022-09-16T04:50:30;3.5;;;1.5;;
49582;SDS011;36329;48.816;44.624;2022-09-16T04:53:32;2.5;;;1.7;;
49582;SDS011;36329;48.816;44.624;2022-09-16T04:56:33;2.7;;;1.4;;
49582;SDS011;36329;48.816;44.624;2022-09-16T04:59:35;2.8;;;1.5;;
49582;SDS011;36329;48.816;44.624;2022-09-16T05:02:37;2.7;;;1.5;;
49582;SDS011;36329;48.816;44.624;2022-09-16T05:05:38;3.2;;;1.6;;
49582;SDS011;36329;48.816;44.624;2022-09-16T05:08:40;2.3;;;1.7;;
49582;SDS011;36329;48.816;44.624;2022-09-16T05:11:42;2.7;;;1.4;;
49582;SDS011;36329;48.816;44.624;2022-09-16T05:14:43;2.7;;;1.4;;
49582;SDS011;36329;48.816;44.624;2022-09-16T05:17:45;3.4;;;1.6;;
49582;SDS011;36329;48.816;44.624;2022-09-16T05:20:46;3.5;;;1.5;;
49582;SDS011;36329;48.816;44.624;2022-09-16T05:23:48;2.6;;;1.4;;
49582;SDS011;36329;48.816;44.624;2022-09-16T05:26:50;3.1;;;1.2;;
49582;SDS011;36329;48.816;44.624;2022-09-16T05:29:52;2.6;;;1.5;;
49582;SDS011;36329;48.816;44.624;2022-09-16T05:32:54;1.8;;;1.3;;
49582;SDS011;36329;48.816;44.624;2022-09-16T05:36:02;2.4;;;1.2;;
49582;SDS011;36329;48.816;44.624;2022-09-16T05:39:05;2.5;;;1.3;;
49582;SDS011;36329;48.816;44.624;2022-09-16T05:42:07;2.6;;;1.4;;
49582;SDS011;36329;48.816;44.624;2022-09-16T05:45:09;3.2;;;1.3;;
49582;SDS011;36329;48.816;44.624;2022-09-16T05:48:11;3.6;;;1.4;;
49582;SDS011;36329;48.816;44.624;2022-09-16T05:51:13;3.1;;;1.3;;
49582;SDS011;36329;48.816;44.624;2022-09-16T05:54:16;3;;;1.6;;
49582;SDS011;36329;48.816;44.624;2022-09-16T05:57:18;3.8;;;1.6;;
49582;SDS011;36329;48.816;44.624;2022-09-16T06:00:20;4;;;1.8;;
49582;SDS011;36329;48.816;44.624;2022-09-16T06:03:21;4;;;1.9;;
49582;SDS011;36329;48.816;44.624;2022-09-16T06:06:24;5.1;;;2.5;;
49582;SDS011;36329;48.816;44.624;2022-09-16T06:09:28;4.7;;;2.1;;
49582;SDS011;36329;48.816;44.624;2022-09-16T06:12:30;4;;;2.3;;
49582;SDS011;36329;48.816;44.624;2022-09-16T06:15:31;4.9;;;2.7;;
49582;SDS011;36329;48.816;44.624;2022-09-16T06:18:33;5.7;;;3.1;;
49582;SDS011;36329;48.816;44.624;2022-09-16T06:21:35;5.4;;;3.6;;
49582;SDS011;36329;48.816;44.624;2022-09-16T06:24:37;5.9;;;3.7;;
49582;SDS011;36329;48.816;44.624;2022-09-16T06:27:39;11.2;;;5;;
49582;SDS011;36329;48.816;44.624;2022-09-16T06:30:40;8.7;;;4.7;;
49582;SDS011;36329;48.816;44.624;2022-09-16T06:33:42;9.6;;;5.2;;
49582;SDS011;36329;48.816;44.624;2022-09-16T06:36:45;13.4;;;7.2;;
49582;SDS011;36329;48.816;44.624;2022-09-16T06:39:47;12.5;;;6.1;;
49582;SDS011;36329;48.816;44.624;2022-09-16T06:42:51;13.1;;;6.6;;
49582;SDS011;36329;48.816;44.624;2022-09-16T06:45:55;14;;;7.2;;
49582;SDS011;36329;48.816;44.624;2022-09-16T06:48:57;8.3;;;3.9;;
49582;SDS011;36329;48.816;44.624;2022-09-16T06:51:59;7.8;;;3.3;;
49582;SDS011;36329;48.816;44.624;2022-09-16T06:55:00;4.3;;;2.2;;
49582;SDS011;36329;48.816;44.624;2022-09-16T06:58:02;4.3;;;2.2;;
49582;SDS011;36329;48.816;44.624;2022-09-16T07:01:05;7.6;;;3.7;;
49582;SDS011;36329;48.816;44.624;2022-09-16T07:04:08;6;;;3;;
49582;SDS011;36329;48.816;44.624;2022-09-16T07:07:11;5.1;;;2.5;;
49582;SDS011;36329;48.816;44.624;2022-09-16T07:10:13;5.1;;;2;;
49582;SDS011;36329;48.816;44.624;2022-09-16T07:13:14;4.2;;;1.9;;
49582;SDS011;36329;48.816;44.624;2022-09-16T07:16:17;4.5;;;2.2;;
49582;SDS011;36329;48.816;44.624;2022-09-16T07:19:20;3.8;;;1.7;;
49582;SDS011;36329;48.816;44.624;2022-09-16T07:22:21;4.4;;;1.6;;
49582;SDS011;36329;48.816;44.624;2022-09-16T07:25:23;3.7;;;1.3;;
49582;SDS011;36329;48.816;44.624;2022-09-16T07:28:24;4.1;;;1.5;;
49582;SDS011;36329;48.816;44.624;2022-09-16T07:31:27;5.7;;;2.6;;
49582;SDS011;36329;48.816;44.624;2022-09-16T07:34:31;5.3;;;1.7;;
49582;SDS011;36329;48.816;44.624;2022-09-16T07:37:33;5.3;;;2.7;;
49582;SDS011;36329;48.816;44.624;2022-09-16T07:40:35;5.7;;;2;;
49582;SDS011;36329;48.816;44.624;2022-09-16T07:43:37;4.1;;;1.3;;
49582;SDS011;36329;48.816;44.624;2022-09-16T07:46:39;4.5;;;1.4;;
49582;SDS011;36329;48.816;44.624;2022-09-16T07:49:41;5.7;;;1.3;;
49582;SDS011;36329;48.816;44.624;2022-09-16T07:52:43;5;;;1.5;;
49582;SDS011;36329;48.816;44.624;2022-09-16T07:55:45;3.8;;;1.5;;
49582;SDS011;36329;48.816;44.624;2022-09-16T07:58:47;4.8;;;2.2;;
49582;SDS011;36329;48.816;44.624;2022-09-16T08:01:49;3.9;;;1.8;;
49582;SDS011;36329;48.816;44.624;2022-09-16T08:04:50;3.6;;;1.4;;
49582;SDS011;36329;48.816;44.624;2022-09-16T08:07:52;3.1;;;1.2;;
49582;SDS011;36329;48.816;44.624;2022-09-16T08:10:53;4.8;;;1.3;;
49582;SDS011;36329;48.816;44.624;2022-09-16T08:13:56;3.4;;;1.4;;
49582;SDS011;36329;48.816;44.624;2022-09-16T08:16:58;5.1;;;1.6;;
49582;SDS011;36329;48.816;44.624;2022-09-16T08:20:00;3.6;;;1.7;;
49582;SDS011;36329;48.816;44.624;2022-09-16T08:23:02;3.7;;;1.6;;
49582;SDS011;36329;48.816;44.624;2022-09-16T08:26:04;3.4;;;1.7;;
49582;SDS011;36329;48.816;44.624;2022-09-16T08:29:07;5.5;;;1.5;;
49582;SDS011;36329;48.816;44.624;2022-09-16T08:32:08;3.6;;;1.4;;
49582;SDS011;36329;48.816;44.624;2022-09-16T08:35:10;4.1;;;1.6;;
49582;SDS011;36329;48.816;44.624;2022-09-16T08:38:11;5.2;;;1.6;;
49582;SDS011;36329;48.816;44.624;2022-09-16T08:41:18;4.4;;;2.2;;
49582;SDS011;36329;48.816;44.624;2022-09-16T08:44:31;5.2;;;2.7;;
49582;SDS011;36329;48.816;44.624;2022-09-16T08:47:42;6.1;;;2.6;;
49582;SDS011;36329;48.816;44.624;2022-09-16T08:50:50;5;;;2.4;;
49582;SDS011;36329;48.816;44.624;2022-09-16T08:53:53;4.6;;;1.9;;
49582;SDS011;36329;48.816;44.624;2022-09-16T08:57:00;4.1;;;1.9;;
49582;SDS011;36329;48.816;44.624;2022-09-16T09:00:06;5.2;;;3.2;;
49582;SDS011;36329;48.816;44.624;2022-09-16T09:03:16;9.1;;;4.9;;
49582;SDS011;36329;48.816;44.624;2022-09-16T09:06:32;13;;;7.6;;
49582;SDS011;36329;48.816;44.624;2022-09-16T09:09:49;12.6;;;7.8;;
49582;SDS011;36329;48.816;44.624;2022-09-16T09:12:59;7.7;;;4.5;;
49582;SDS011;36329;48.816;44.624;2022-09-16T09:16:11;4.7;;;3.1;;
49582;SDS011;36329;48.816;44.624;2022-09-16T09:19:21;7.3;;;3.6;;
49582;SDS011;36329;48.816;44.624;2022-09-16T09:22:31;5.5;;;3;;
49582;SDS011;36329;48.816;44.624;2022-09-16T09:25:45;3.4;;;2.2;;
49582;SDS011;36329;48.816;44.624;2022-09-16T09:28:56;4.8;;;2.2;;
49582;SDS011;36329;48.816;44.624;2022-09-16T09:32:06;4.3;;;1.9;;
49582;SDS011;36329;48.816;44.624;2022-09-16T09:35:21;4.3;;;2.6;;
49582;SDS011;36329;48.816;44.624;2022-09-16T09:38:37;5.6;;;3.3;;
49582;SDS011;36329;48.816;44.624;2022-09-16T09:41:48;5.6;;;2.7;;
49582;SDS011;36329;48.816;44.624;2022-09-16T09:44:56;5.5;;;2.8;;
49582;SDS011;36329;48.816;44.624;2022-09-16T09:48:09;4.9;;;2.7;;
49582;SDS011;36329;48.816;44.624;2022-09-16T09:51:17;4.5;;;2.8;;
49582;SDS011;36329;48.816;44.624;2022-09-16T09:54:26;4.5;;;2.4;;
49582;SDS011;36329;48.816;44.624;2022-09-16T09:57:29;2.8;;;2;;
49582;SDS011;36329;48.816;44.624;2022-09-16T10:00:37;3.4;;;1.7;;
49582;SDS011;36329;48.816;44.624;2022-09-16T10:03:38;4.3;;;1.9;;
49582;SDS011;36329;48.816;44.624;2022-09-16T10:06:41;4.2;;;1.9;;
49582;SDS011;36329;48.816;44.624;2022-09-16T10:09:46;4.8;;;1.7;;
49582;SDS011;36329;48.816;44.624;2022-09-16T10:12:51;3.9;;;1.7;;
49582;SDS011;36329;48.816;44.624;2022-09-16T10:15:53;4;;;1.7;;
49582;SDS011;36329;48.816;44.624;2022-09-16T10:19:14;5;;;1.8;;
49582;SDS011;36329;48.816;44.624;2022-09-16T10:22:21;4.3;;;1.9;;
49582;SDS011;36329;48.816;44.624;2022-09-16T10:25:26;3.7;;;1.8;;
49582;SDS011;36329;48.816;44.624;2022-09-16T10:28:30;3.6;;;1.7;;
49582;SDS011;36329;48.816;44.624;2022-09-16T10:31:34;4.9;;;2.1;;
49582;SDS011;36329;48.816;44.624;2022-09-16T10:34:38;4.8;;;2.4;;
49582;SDS011;36329;48.816;44.624;2022-09-16T10:37:44;5.3;;;2.7;;
49582;SDS011;36329;48.816;44.624;2022-09-16T10:40:50;6.1;;;2.5;;
49582;SDS011;36329;48.816;44.624;2022-09-16T10:43:53;6.4;;;2.4;;
49582;SDS011;36329;48.816;44.624;2022-09-16T10:47:00;5;;;2.4;;
49582;SDS011;36329;48.816;44.624;2022-09-16T10:50:04;4.4;;;2.2;;
49582;SDS011;36329;48.816;44.624;2022-09-16T10:56:24;4.5;;;2.4;;
49582;SDS011;36329;48.816;44.624;2022-09-16T10:59:26;6.3;;;2.9;;
49582;SDS011;36329;48.816;44.624;2022-09-16T11:02:32;6.8;;;3;;
49582;SDS011;36329;48.816;44.624;2022-09-16T11:05:47;5.8;;;3.1;;
49582;SDS011;36329;48.816;44.624;2022-09-16T11:09:00;6;;;3.1;;
49582;SDS011;36329;48.816;44.624;2022-09-16T11:12:13;5.3;;;2.8;;
49582;SDS011;36329;48.816;44.624;2022-09-16T11:15:29;8.4;;;2.8;;
49582;SDS011;36329;48.816;44.624;2022-09-16T11:18:41;5.6;;;2.4;;
49582;SDS011;36329;48.816;44.624;2022-09-16T11:21:50;5.4;;;2.4;;
49582;SDS011;36329;48.816;44.624;2022-09-16T11:25:07;4;;;2;;
49582;SDS011;36329;48.816;44.624;2022-09-16T11:28:32;4;;;1.7;;
49582;SDS011;36329;48.816;44.624;2022-09-16T11:31:54;2;;;1.3;;
49582;SDS011;36329;48.816;44.624;2022-09-16T11:35:08;3.3;;;1.6;;
49582;SDS011;36329;48.816;44.624;2022-09-16T11:38:24;2.8;;;1.5;;
49582;SDS011;36329;48.816;44.624;2022-09-16T11:41:35;2.9;;;1.5;;
49582;SDS011;36329;48.816;44.624;2022-09-16T11:44:43;3.2;;;1.8;;
49582;SDS011;36329;48.816;44.624;2022-09-16T11:47:53;4.1;;;1.8;;
49582;SDS011;36329;48.816;44.624;2022-09-16T11:51:05;3.6;;;1.8;;
49582;SDS011;36329;48.816;44.624;2022-09-16T11:54:23;3.2;;;1.9;;
49582;SDS011;36329;48.816;44.624;2022-09-16T11:57:37;4.1;;;2.2;;
49582;SDS011;36329;48.816;44.624;2022-09-16T12:00:44;5.4;;;2.8;;
49582;SDS011;36329;48.816;44.624;2022-09-16T12:03:51;5.4;;;2.8;;
49582;SDS011;36329;48.816;44.624;2022-09-16T12:06:59;6.2;;;3.3;;
49582;SDS011;36329;48.816;44.624;2022-09-16T12:10:11;6;;;3.3;;
49582;SDS011;36329;48.816;44.624;2022-09-16T12:13:18;9;;;4.4;;
49582;SDS011;36329;48.816;44.624;2022-09-16T12:16:26;8.6;;;3.8;;
49582;SDS011;36329;48.816;44.624;2022-09-16T12:19:35;11.9;;;5.8;;
49582;SDS011;36329;48.816;44.624;2022-09-16T12:22:43;11.8;;;6.3;;
49582;SDS011;36329;48.816;44.624;2022-09-16T12:26:00;14;;;7.2;;
49582;SDS011;36329;48.816;44.624;2022-09-16T12:29:09;17.3;;;9;;
49582;SDS011;36329;48.816;44.624;2022-09-16T12:32:19;5.4;;;3.4;;
49582;SDS011;36329;48.816;44.624;2022-09-16T12:35:30;2.8;;;2.2;;
49582;SDS011;36329;48.816;44.624;2022-09-16T12:38:34;4;;;2.1;;
49582;SDS011;36329;48.816;44.624;2022-09-16T12:41:48;3.5;;;2;;
49582;SDS011;36329;48.816;44.624;2022-09-16T12:48:32;3.7;;;2.3;;
49582;SDS011;36329;48.816;44.624;2022-09-16T12:51:46;4.2;;;2.2;;
49582;SDS011;36329;48.816;44.624;2022-09-16T12:55:08;6.3;;;2.2;;
49582;SDS011;36329;48.816;44.624;2022-09-16T13:01:49;3.5;;;2.3;;
49582;SDS011;36329;48.816;44.624;2022-09-16T13:04:54;3.5;;;2.4;;
49582;SDS011;36329;48.816;44.624;2022-09-16T13:08:02;4.8;;;2.7;;
49582;SDS011;36329;48.816;44.624;2022-09-16T13:11:06;5;;;2.4;;
49582;SDS011;36329;48.816;44.624;2022-09-16T13:14:19;3.8;;;2.5;;
49582;SDS011;36329;48.816;44.624;2022-09-16T13:17:27;5.6;;;2.7;;
49582;SDS011;36329;48.816;44.624;2022-09-16T13:20:30;6.1;;;2.8;;
49582;SDS011;36329;48.816;44.624;2022-09-16T13:23:35;4.5;;;2.5;;
49582;SDS011;36329;48.816;44.624;2022-09-16T13:26:45;5.8;;;2.5;;
49582;SDS011;36329;48.816;44.624;2022-09-16T13:29:46;5.9;;;2.5;;
49582;SDS011;36329;48.816;44.624;2022-09-16T13:32:56;4.2;;;2.7;;
49582;SDS011;36329;48.816;44.624;2022-09-16T13:36:02;7.9;;;3;;
49582;SDS011;36329;48.816;44.624;2022-09-16T13:39:12;5.1;;;2.6;;
49582;SDS011;36329;48.816;44.624;2022-09-16T13:42:16;8.9;;;2.7;;
49582;SDS011;36329;48.816;44.624;2022-09-16T13:48:40;7.2;;;3.1;;
49582;SDS011;36329;48.816;44.624;2022-09-16T13:51:45;7.5;;;4.1;;
49582;SDS011;36329;48.816;44.624;2022-09-16T13:54:49;6.1;;;3;;
49582;SDS011;36329;48.816;44.624;2022-09-16T13:57:58;7.3;;;3.4;;
49582;SDS011;36329;48.816;44.624;2022-09-16T14:01:06;7.7;;;3;;
49582;SDS011;36329;48.816;44.624;2022-09-16T14:04:13;3;;;2.1;;
49582;SDS011;36329;48.816;44.624;2022-09-16T14:07:27;5.4;;;2.6;;
49582;SDS011;36329;48.816;44.624;2022-09-16T14:10:36;4.3;;;2.6;;
49582;SDS011;36329;48.816;44.624;2022-09-16T14:13:47;8.2;;;2.5;;
49582;SDS011;36329;48.816;44.624;2022-09-16T14:16:51;4.7;;;2.3;;
49582;SDS011;36329;48.816;44.624;2022-09-16T14:19:55;4.9;;;2.3;;
49582;SDS011;36329;48.816;44.624;2022-09-16T14:23:00;4.2;;;2.3;;
49582;SDS011;36329;48.816;44.624;2022-09-16T14:26:10;4.8;;;2.7;;
49582;SDS011;36329;48.816;44.624;2022-09-16T14:29:13;7.4;;;2.4;;
49582;SDS011;36329;48.816;44.624;2022-09-16T14:32:15;5.5;;;2.7;;
49582;SDS011;36329;48.816;44.624;2022-09-16T14:35:17;5.7;;;2.4;;
49582;SDS011;36329;48.816;44.624;2022-09-16T14:38:24;6.7;;;2.8;;
49582;SDS011;36329;48.816;44.624;2022-09-16T14:41:34;5.1;;;2.5;;
49582;SDS011;36329;48.816;44.624;2022-09-16T14:44:38;9.6;;;3.1;;
49582;SDS011;36329;48.816;44.624;2022-09-16T14:47:42;4.9;;;2.7;;
49582;SDS011;36329;48.816;44.624;2022-09-16T14:50:46;6;;;2.5;;
49582;SDS011;36329;48.816;44.624;2022-09-16T14:53:52;5.2;;;2.5;;
49582;SDS011;36329;48.816;44.624;2022-09-16T14:56:56;8.2;;;2.7;;
49582;SDS011;36329;48.816;44.624;2022-09-16T15:00:00;6.7;;;2.7;;
49582;SDS011;36329;48.816;44.624;2022-09-16T15:03:06;6.2;;;2.8;;
49582;SDS011;36329;48.816;44.624;2022-09-16T15:06:16;7.3;;;3;;
49582;SDS011;36329;48.816;44.624;2022-09-16T15:09:22;9.9;;;3.2;;
49582;SDS011;36329;48.816;44.624;2022-09-16T15:12:30;8.3;;;3.1;;
49582;SDS011;36329;48.816;44.624;2022-09-16T15:15:48;8.3;;;3.2;;
49582;SDS011;36329;48.816;44.624;2022-09-16T15:18:52;7;;;3.3;;
49582;SDS011;36329;48.816;44.624;2022-09-16T15:21:58;6.5;;;3.4;;
49582;SDS011;36329;48.816;44.624;2022-09-16T15:25:00;7.1;;;3.4;;
49582;SDS011;36329;48.816;44.624;2022-09-16T15:28:03;6.1;;;3.3;;
49582;SDS011;36329;48.816;44.624;2022-09-16T15:31:05;5.2;;;3.1;;
49582;SDS011;36329;48.816;44.624;2022-09-16T15:37:30;7.1;;;3.4;;
49582;SDS011;36329;48.816;44.624;2022-09-16T15:40:33;10.4;;;3.9;;
49582;SDS011;36329;48.816;44.624;2022-09-16T15:43:35;6.9;;;4;;
49582;SDS011;36329;48.816;44.624;2022-09-16T15:46:39;7.5;;;3.6;;
49582;SDS011;36329;48.816;44.624;2022-09-16T15:49:46;10;;;4.1;;
49582;SDS011;36329;48.816;44.624;2022-09-16T15:52:52;7.8;;;3.9;;
49582;SDS011;36329;48.816;44.624;2022-09-16T15:55:58;8.4;;;4;;
49582;SDS011;36329;48.816;44.624;2022-09-16T15:59:03;9.2;;;4.2;;
49582;SDS011;36329;48.816;44.624;2022-09-16T16:02:20;11.1;;;4.6;;
49582;SDS011;36329;48.816;44.624;2022-09-16T16:05:27;12;;;5.1;;
49582;SDS011;36329;48.816;44.624;2022-09-16T16:08:38;11.4;;;4.9;;
49582;SDS011;36329;48.816;44.624;2022-09-16T16:11:44;8.4;;;4.7;;
49582;SDS011;36329;48.816;44.624;2022-09-16T16:14:45;9.7;;;4.5;;
49582;SDS011;36329;48.816;44.624;2022-09-16T16:17:47;9.7;;;4.8;;
49582;SDS011;36329;48.816;44.624;2022-09-16T16:20:52;6.5;;;4.6;;
49582;SDS011;36329;48.816;44.624;2022-09-16T16:23:53;6.8;;;4.5;;
49582;SDS011;36329;48.816;44.624;2022-09-16T16:26:55;10.2;;;5;;
49582;SDS011;36329;48.816;44.624;2022-09-16T16:29:57;9;;;5.3;;
49582;SDS011;36329;48.816;44.624;2022-09-16T16:32:58;11.5;;;5.4;;
49582;SDS011;36329;48.816;44.624;2022-09-16T16:36:00;12.3;;;5.8;;
49582;SDS011;36329;48.816;44.624;2022-09-16T16:39:02;11.2;;;5.3;;
49582;SDS011;36329;48.816;44.624;2022-09-16T16:42:04;12;;;5.7;;
49582;SDS011;36329;48.816;44.624;2022-09-16T16:45:06;9.7;;;5.4;;
49582;SDS011;36329;48.816;44.624;2022-09-16T16:48:08;8.6;;;5.1;;
49582;SDS011;36329;48.816;44.624;2022-09-16T16:51:11;11.6;;;4.9;;
49582;SDS011;36329;48.816;44.624;2022-09-16T16:54:13;9.7;;;5.8;;
49582;SDS011;36329;48.816;44.624;2022-09-16T16:57:15;11.2;;;6.1;;
49582;SDS011;36329;48.816;44.624;2022-09-16T17:00:16;14.3;;;8.2;;
49582;SDS011;36329;48.816;44.624;2022-09-16T17:03:18;16.8;;;9.7;;
49582;SDS011;36329;48.816;44.624;2022-09-16T17:06:20;18.6;;;10.5;;
49582;SDS011;36329;48.816;44.624;2022-09-16T17:09:22;21.6;;;10.9;;
49582;SDS011;36329;48.816;44.624;2022-09-16T17:12:24;19.3;;;10.4;;
49582;SDS011;36329;48.816;44.624;2022-09-16T17:15:26;20.7;;;11.5;;
49582;SDS011;36329;48.816;44.624;2022-09-16T17:18:28;22.2;;;11.6;;
49582;SDS011;36329;48.816;44.624;2022-09-16T17:21:31;17.5;;;10.9;;
49582;SDS011;36329;48.816;44.624;2022-09-16T17:24:34;18.8;;;10.6;;
49582;SDS011;36329;48.816;44.624;2022-09-16T17:27:35;19.1;;;8.8;;
49582;SDS011;36329;48.816;44.624;2022-09-16T17:30:41;16.6;;;8.5;;
49582;SDS011;36329;48.816;44.624;2022-09-16T17:33:44;20.2;;;7.6;;
49582;SDS011;36329;48.816;44.624;2022-09-16T17:36:46;14.3;;;7.8;;
49582;SDS011;36329;48.816;44.624;2022-09-16T17:39:48;13.4;;;6.9;;
49582;SDS011;36329;48.816;44.624;2022-09-16T17:42:50;13.2;;;7;;
49582;SDS011;36329;48.816;44.624;2022-09-16T17:45:52;11.5;;;7.4;;
49582;SDS011;36329;48.816;44.624;2022-09-16T17:48:57;12.8;;;7.7;;
49582;SDS011;36329;48.816;44.624;2022-09-16T17:52:00;9.9;;;6.7;;
49582;SDS011;36329;48.816;44.624;2022-09-16T17:55:03;13.9;;;6.6;;
49582;SDS011;36329;48.816;44.624;2022-09-16T17:58:05;8.8;;;6.7;;
49582;SDS011;36329;48.816;44.624;2022-09-16T18:01:22;8.9;;;6.6;;
49582;SDS011;36329;48.816;44.624;2022-09-16T18:04:25;8.4;;;6;;
49582;SDS011;36329;48.816;44.624;2022-09-16T18:07:27;8.3;;;6.3;;
49582;SDS011;36329;48.816;44.624;2022-09-16T18:10:29;8.6;;;7.2;;
49582;SDS011;36329;48.816;44.624;2022-09-16T18:13:31;10.3;;;6.3;;
49582;SDS011;36329;48.816;44.624;2022-09-16T18:16:34;9.1;;;7;;
49582;SDS011;36329;48.816;44.624;2022-09-16T18:19:35;8.7;;;6.5;;
49582;SDS011;36329;48.816;44.624;2022-09-16T18:22:37;10.1;;;7.1;;
49582;SDS011;36329;48.816;44.624;2022-09-16T18:25:39;9.2;;;6.4;;
49582;SDS011;36329;48.816;44.624;2022-09-16T18:28:41;8.1;;;7;;
49582;SDS011;36329;48.816;44.624;2022-09-16T18:31:44;9.2;;;7.8;;
49582;SDS011;36329;48.816;44.624;2022-09-16T18:34:48;9.6;;;7.6;;
49582;SDS011;36329;48.816;44.624;2022-09-16T18:37:50;8.7;;;6.6;;
49582;SDS011;36329;48.816;44.624;2022-09-16T18:41:00;8.8;;;6.5;;
49582;SDS011;36329;48.816;44.624;2022-09-16T18:44:04;10.5;;;6.9;;
49582;SDS011;36329;48.816;44.624;2022-09-16T18:47:08;8;;;6.6;;
49582;SDS011;36329;48.816;44.624;2022-09-16T18:50:11;7.7;;;6.5;;
49582;SDS011;36329;48.816;44.624;2022-09-16T18:53:13;10.6;;;7.4;;
49582;SDS011;36329;48.816;44.624;2022-09-16T18:56:18;10.2;;;6.7;;
49582;SDS011;36329;48.816;44.624;2022-09-16T18:59:24;10;;;7;;
49582;SDS011;36329;48.816;44.624;2022-09-16T19:02:29;9.1;;;6.5;;
49582;SDS011;36329;48.816;44.624;2022-09-16T19:05:31;7.8;;;6.9;;
49582;SDS011;36329;48.816;44.624;2022-09-16T19:08:33;9.7;;;7;;
49582;SDS011;36329;48.816;44.624;2022-09-16T19:11:35;9.8;;;6.6;;
49582;SDS011;36329;48.816;44.624;2022-09-16T19:14:38;9.1;;;6.9;;
49582;SDS011;36329;48.816;44.624;2022-09-16T19:17:41;9.2;;;6.6;;